Terminal Aerodrome Forecast
Issued by NWS

Home | Current Version | Previous Version | Text Only | Print | Product List | Glossary On
Versions: 1 2 3 4 5 6 7 8 9 10 11
000
FTUS42 KILM 261700
TAFCRE
TAF
KCRE 261725Z 2618/2718 08004KT P6SM FEW250
      TEMPO 2710/2712 5SM BR=

USA.gov is the U.S. government's official web portal to all federal, state and local government web resources and services.